Time;durP1;ratioP1;P1;durP2;ratioP2;P2;SDS_P1;SDS_P2;PMS_P1;PMS_P2;Temp;Humidity;BMP_temperature;BMP_pressure;BME280_temperature;BME280_humidity;BME280_pressure;Samples;Min_cycle;Max_cycle;Signal;HPM_P1;HPM_P2
2023/04/25 00:02:08;;;;;;;7.80;2.70;;;9.30;20.30;;;;;;5052787;28;21269;-64
2023/04/25 00:04:37;;;;;;;9.60;3.17;;;9.30;20.50;;;;;;5051650;28;20465;-64
2023/04/25 00:07:04;;;;;;;11.73;3.20;;;9.30;20.70;;;;;;5051280;28;20503;-64
2023/04/25 00:09:31;;;;;;;6.53;2.73;;;9.30;20.60;;;;;;5045659;28;21026;-64
2023/04/25 00:11:58;;;;;;;6.50;2.67;;;9.30;20.40;;;;;;5053041;28;21277;-64
2023/04/25 00:14:25;;;;;;;7.83;2.83;;;9.30;20.40;;;;;;5052832;28;20467;-64
2023/04/25 00:16:51;;;;;;;6.13;2.57;;;9.30;20.80;;;;;;5052720;28;20493;-64
2023/04/25 00:19:18;;;;;;;5.30;2.30;;;9.20;20.70;;;;;;5035877;28;20548;-64
2023/04/25 00:21:46;;;;;;;5.50;2.53;;;9.30;20.90;;;;;;5055152;28;20469;-64
2023/04/25 00:24:13;;;;;;;6.23;2.80;;;9.40;20.90;;;;;;5053483;28;20509;-64
2023/04/25 00:26:40;;;;;;;5.20;2.80;;;9.40;20.80;;;;;;5051530;28;20454;-64
2023/04/25 00:29:07;;;;;;;7.70;2.90;;;9.30;21.10;;;;;;5052336;28;20489;-64
2023/04/25 00:31:33;;;;;;;6.33;2.90;;;9.40;21.10;;;;;;5049745;28;20478;-64
2023/04/25 00:34:00;;;;;;;9.87;3.27;;;9.30;21.10;;;;;;5050137;28;21186;-64
2023/04/25 00:36:27;;;;;;;6.97;3.10;;;9.30;21.20;;;;;;5045373;28;20483;-64
2023/04/25 00:38:55;;;;;;;5.80;2.57;;;9.30;21.20;;;;;;5055749;28;20478;-64
2023/04/25 00:41:22;;;;;;;7.93;2.73;;;9.30;21.30;;;;;;5046690;28;20462;-64
2023/04/25 00:43:49;;;;;;;5.20;2.17;;;9.30;21.40;;;;;;5048677;28;20466;-64
2023/04/25 00:46:16;;;;;;;5.80;3.40;;;9.30;21.80;;;;;;5047385;28;20463;-64
2023/04/25 00:48:43;;;;;;;5.80;3.03;;;9.30;22.10;;;;;;5052451;28;20481;-64
2023/04/25 00:51:19;;;;;;;7.23;3.30;;;9.30;22.30;;;;;;5053192;28;20461;-64
2023/04/25 00:53:47;;;;;;;6.40;3.10;;;9.30;22.70;;;;;;5055315;28;20456;-64
2023/04/25 00:56:16;;;;;;;6.60;3.30;;;9.30;22.60;;;;;;5053517;28;20558;-64
2023/04/25 00:58:43;;;;;;;6.70;3.03;;;9.30;22.60;;;;;;5052774;28;20481;-65
2023/04/25 01:01:11;;;;;;;6.53;2.90;;;9.30;22.60;;;;;;5053047;28;20469;-64
2023/04/25 01:03:41;;;;;;;6.13;2.97;;;9.30;22.60;;;;;;5049947;28;20462;-64
2023/04/25 01:06:08;;;;;;;6.77;4.33;;;9.30;22.60;;;;;;5048596;28;20501;-64
2023/04/25 01:08:35;;;;;;;6.60;3.60;;;9.30;22.70;;;;;;5050794;28;20477;-64
2023/04/25 01:11:02;;;;;;;6.80;3.63;;;9.30;22.90;;;;;;5051372;28;20459;-64
2023/04/25 01:13:31;;;;;;;5.83;3.03;;;9.30;23.20;;;;;;5053939;28;20454;-64
2023/04/25 01:15:58;;;;;;;8.90;3.37;;;9.30;23.30;;;;;;5050379;28;20489;-64
2023/04/25 01:18:25;;;;;;;5.97;3.43;;;9.20;23.10;;;;;;5046155;28;21006;-64
2023/04/25 01:20:53;;;;;;;7.53;3.07;;;9.20;23.00;;;;;;5049068;28;20458;-64
2023/04/25 01:23:22;;;;;;;6.30;3.40;;;9.20;23.10;;;;;;5052882;28;20813;-64
2023/04/25 01:25:49;;;;;;;7.20;4.03;;;9.20;22.70;;;;;;5051247;28;20454;-64
2023/04/25 01:28:17;;;;;;;6.37;3.87;;;9.30;23.00;;;;;;5052932;28;20485;-64
2023/04/25 01:30:44;;;;;;;10.57;4.03;;;9.20;23.00;;;;;;5054534;28;21199;-64
2023/04/25 01:33:12;;;;;;;6.63;3.60;;;9.20;23.00;;;;;;5052475;28;20465;-64
2023/04/25 01:35:38;;;;;;;6.70;3.50;;;9.20;22.80;;;;;;5051086;28;20488;-64
2023/04/25 01:38:05;;;;;;;7.20;4.33;;;9.20;22.80;;;;;;5049390;28;20478;-64
2023/04/25 01:40:35;;;;;;;5.53;3.00;;;9.20;22.80;;;;;;5053923;28;20469;-64
2023/04/25 01:43:02;;;;;;;7.70;3.73;;;9.20;22.80;;;;;;5050240;28;20454;-64
2023/04/25 01:45:29;;;;;;;6.50;3.27;;;9.20;22.90;;;;;;5053890;28;20958;-64
2023/04/25 01:47:59;;;;;;;8.80;3.97;;;9.10;23.00;;;;;;5052650;28;20842;-64
2023/04/25 01:50:26;;;;;;;6.50;3.40;;;9.20;22.90;;;;;;5054052;28;20462;-64
2023/04/25 01:52:53;;;;;;;7.70;3.07;;;9.20;23.00;;;;;;5049317;28;20454;-64
2023/04/25 01:55:20;;;;;;;10.63;4.37;;;9.20;23.00;;;;;;5053459;28;20473;-64
2023/04/25 01:57:48;;;;;;;9.87;3.70;;;9.20;23.50;;;;;;5051926;28;20994;-64
2023/04/25 02:00:15;;;;;;;5.67;2.80;;;9.20;23.40;;;;;;5055996;28;20472;-65
2023/04/25 02:02:42;;;;;;;11.80;3.70;;;9.20;23.40;;;;;;5048260;28;20457;-64
2023/04/25 02:05:09;;;;;;;8.17;4.10;;;9.20;23.50;;;;;;5051058;28;20458;-64
2023/04/25 02:07:36;;;;;;;8.47;3.67;;;9.20;23.50;;;;;;5051101;28;20554;-64
2023/04/25 02:10:02;;;;;;;7.80;3.00;;;9.20;23.80;;;;;;5051234;28;20458;-64
2023/04/25 02:12:29;;;;;;;6.70;3.10;;;9.20;24.20;;;;;;5055295;28;20873;-64
2023/04/25 02:14:57;;;;;;;7.10;3.57;;;9.10;24.30;;;;;;5048968;28;20454;-64
2023/04/25 02:17:24;;;;;;;7.97;3.77;;;9.20;24.20;;;;;;5055310;28;20478;-64
2023/04/25 02:19:51;;;;;;;8.60;3.93;;;9.20;24.10;;;;;;5053372;28;20525;-64
2023/04/25 02:22:18;;;;;;;7.23;3.43;;;9.20;24.40;;;;;;5052524;28;20461;-64
2023/04/25 02:24:45;;;;;;;6.90;3.20;;;9.20;23.60;;;;;;5055429;28;20467;-64
2023/04/25 02:27:11;;;;;;;7.17;3.33;;;9.20;23.70;;;;;;5054247;28;20968;-64
2023/04/25 02:29:38;;;;;;;7.57;3.20;;;9.20;24.00;;;;;;5054331;28;20458;-64
2023/04/25 02:32:06;;;;;;;11.63;4.10;;;9.20;24.40;;;;;;5050747;28;20871;-64
2023/04/25 02:34:33;;;;;;;6.20;2.90;;;9.20;24.60;;;;;;5051410;28;20450;-64
2023/04/25 02:37:00;;;;;;;7.87;4.10;;;9.10;24.80;;;;;;5051665;28;20496;-64
2023/04/25 02:39:27;;;;;;;9.30;3.97;;;9.20;24.70;;;;;;5053572;28;20462;-64
2023/04/25 02:41:53;;;;;;;11.20;3.80;;;9.20;25.00;;;;;;5045766;28;20498;-64
2023/04/25 02:44:20;;;;;;;7.30;3.67;;;9.10;25.00;;;;;;5047449;28;20465;-64
2023/04/25 02:46:47;;;;;;;5.80;3.23;;;9.10;25.10;;;;;;5050040;28;20861;-64
2023/04/25 02:49:15;;;;;;;6.63;2.93;;;9.00;25.10;;;;;;5047895;28;20469;-64
2023/04/25 02:51:42;;;;;;;7.13;3.03;;;9.00;25.60;;;;;;5052592;28;20498;-64
2023/04/25 02:54:08;;;;;;;6.47;3.23;;;9.00;25.60;;;;;;5049383;28;20528;-64
2023/04/25 02:56:35;;;;;;;8.40;2.63;;;8.90;25.80;;;;;;5051782;28;20470;-64
2023/04/25 02:59:02;;;;;;;5.70;2.43;;;8.90;25.80;;;;;;5055009;28;20493;-65
2023/04/25 03:01:29;;;;;;;5.17;2.30;;;8.90;25.70;;;;;;5055621;28;20505;-64
2023/04/25 03:03:55;;;;;;;7.40;3.00;;;8.90;25.60;;;;;;5055533;28;20522;-64
2023/04/25 03:06:23;;;;;;;5.97;3.13;;;8.90;26.00;;;;;;5052347;28;20461;-64
2023/04/25 03:08:50;;;;;;;5.50;2.50;;;9.00;25.50;;;;;;5056670;28;20483;-64
2023/04/25 03:11:17;;;;;;;8.93;2.30;;;8.90;25.40;;;;;;5055039;28;20469;-64
2023/04/25 03:13:43;;;;;;;5.80;2.57;;;8.90;25.80;;;;;;5048960;28;20469;-64
2023/04/25 03:16:10;;;;;;;5.60;2.30;;;8.90;25.60;;;;;;5053458;28;20497;-64
2023/04/25 03:18:37;;;;;;;5.73;2.87;;;8.90;25.90;;;;;;5058670;28;20561;-64
2023/04/25 03:21:04;;;;;;;6.27;2.80;;;8.90;25.90;;;;;;5055572;28;20469;-64
2023/04/25 03:23:32;;;;;;;5.53;2.00;;;8.90;26.10;;;;;;5057158;28;20462;-64
2023/04/25 03:25:59;;;;;;;6.10;2.20;;;8.80;25.80;;;;;;5057990;28;20446;-64
2023/04/25 03:28:25;;;;;;;6.00;2.53;;;8.90;26.10;;;;;;5053524;28;20474;-64
2023/04/25 03:30:52;;;;;;;5.43;2.90;;;8.80;25.90;;;;;;5044932;28;20482;-64
2023/04/25 03:33:19;;;;;;;7.90;2.87;;;8.80;26.00;;;;;;5045811;28;20462;-64
2023/04/25 03:35:45;;;;;;;6.20;2.33;;;8.80;26.40;;;;;;5050994;28;20470;-64
2023/04/25 03:38:12;;;;;;;9.20;3.10;;;8.80;26.50;;;;;;5050034;28;20478;-64
2023/04/25 03:40:40;;;;;;;6.90;3.00;;;8.70;26.60;;;;;;5044639;28;20465;-64
2023/04/25 03:43:07;;;;;;;11.37;2.80;;;8.80;26.50;;;;;;5046966;28;20496;-64
2023/04/25 03:45:34;;;;;;;7.10;2.57;;;8.70;26.80;;;;;;5049674;28;20459;-64
2023/04/25 03:48:00;;;;;;;5.20;2.67;;;8.70;27.20;;;;;;5051971;28;20492;-64
2023/04/25 03:50:27;;;;;;;6.40;2.40;;;8.70;27.10;;;;;;5048289;28;20473;-63
2023/04/25 03:52:54;;;;;;;11.63;3.50;;;8.70;26.90;;;;;;5048503;28;20474;-63
2023/04/25 03:55:21;;;;;;;8.93;3.00;;;8.80;27.20;;;;;;5047768;28;20505;-64
2023/04/25 03:57:49;;;;;;;9.30;3.03;;;8.80;27.50;;;;;;5055626;28;20490;-64
2023/04/25 04:00:16;;;;;;;9.20;3.50;;;8.80;27.30;;;;;;5042402;28;20478;-65
2023/04/25 04:02:43;;;;;;;5.97;2.40;;;8.80;27.10;;;;;;5045799;28;20461;-63
2023/04/25 04:05:10;;;;;;;6.77;3.20;;;8.80;27.20;;;;;;5051252;28;20469;-64
2023/04/25 04:07:39;;;;;;;10.93;3.17;;;8.70;27.30;;;;;;5054769;28;20484;-63
2023/04/25 04:10:07;;;;;;;6.80;3.03;;;8.70;27.30;;;;;;5054471;28;20465;-64
2023/04/25 04:12:34;;;;;;;10.13;3.50;;;8.70;27.40;;;;;;5052252;28;20450;-63
2023/04/25 04:15:02;;;;;;;6.83;2.70;;;9.00;27.40;;;;;;5051340;28;20460;-63
2023/04/25 04:17:29;;;;;;;7.17;2.63;;;8.70;27.40;;;;;;5046447;28;20577;-63
2023/04/25 04:19:56;;;;;;;6.20;2.70;;;8.70;27.30;;;;;;5047222;28;20462;-63
2023/04/25 04:22:23;;;;;;;8.40;2.93;;;8.70;27.40;;;;;;5053142;28;20508;-63
2023/04/25 04:24:50;;;;;;;8.83;3.00;;;8.70;27.60;;;;;;5053484;28;20481;-63
2023/04/25 04:27:19;;;;;;;6.20;2.60;;;8.70;27.80;;;;;;5054058;28;20474;-64
2023/04/25 04:29:46;;;;;;;6.67;2.43;;;8.60;27.70;;;;;;5044434;28;21029;-63
2023/04/25 04:32:14;;;;;;;6.27;2.30;;;8.70;27.50;;;;;;5052931;28;20568;-63
2023/04/25 04:34:42;;;;;;;7.70;2.90;;;8.60;27.50;;;;;;5053933;28;20453;-63
2023/04/25 04:37:09;;;;;;;5.97;2.27;;;8.70;27.50;;;;;;5047498;22;20527;-65
2023/04/25 04:39:36;;;;;;;8.80;2.20;;;8.60;27.50;;;;;;5008081;28;20514;-64
2023/04/25 04:42:04;;;;;;;5.80;2.37;;;8.60;27.60;;;;;;5005983;28;20963;-64
2023/04/25 04:44:34;;;;;;;4.70;2.30;;;8.60;27.40;;;;;;5004144;28;20552;-64
2023/04/25 04:47:01;;;;;;;7.40;2.97;;;8.60;27.70;;;;;;5008042;28;20456;-64
2023/04/25 04:49:29;;;;;;;7.50;2.63;;;8.60;28.00;;;;;;5008691;28;20486;-64
2023/04/25 04:51:56;;;;;;;10.10;2.60;;;8.60;27.80;;;;;;5012362;28;20468;-65
2023/04/25 04:54:22;;;;;;;5.20;2.27;;;8.60;27.70;;;;;;5021458;28;20469;-66
2023/04/25 04:56:50;;;;;;;6.77;2.57;;;8.60;27.70;;;;;;5008743;28;20480;-65
2023/04/25 04:59:16;;;;;;;7.70;3.13;;;8.60;28.00;;;;;;5015406;28;20542;-65
2023/04/25 05:01:43;;;;;;;5.83;2.33;;;8.60;28.20;;;;;;5009160;28;20472;-65
2023/04/25 05:04:10;;;;;;;5.90;2.70;;;8.60;28.20;;;;;;5002462;28;21331;-64
2023/04/25 05:06:38;;;;;;;5.60;2.93;;;8.70;28.50;;;;;;5004269;28;20471;-65
2023/04/25 05:09:04;;;;;;;8.50;3.13;;;8.70;28.10;;;;;;5005838;28;21039;-65
2023/04/25 05:11:31;;;;;;;7.43;2.70;;;8.80;28.20;;;;;;4999885;28;20464;-65
2023/04/25 05:13:58;;;;;;;7.07;3.20;;;8.80;28.50;;;;;;5007130;28;20999;-64
2023/04/25 05:16:25;;;;;;;9.13;2.97;;;8.90;28.50;;;;;;5003921;28;20473;-65
2023/04/25 05:18:52;;;;;;;5.77;3.70;;;8.90;28.30;;;;;;5005146;28;20567;-65
2023/04/25 05:21:19;;;;;;;7.57;3.53;;;8.90;28.40;;;;;;5006368;28;20491;-64
2023/04/25 05:23:47;;;;;;;6.90;3.50;;;9.00;28.20;;;;;;5010651;28;20456;-65
2023/04/25 05:26:14;;;;;;;7.70;2.60;;;8.90;28.30;;;;;;5009340;28;20455;-65
2023/04/25 05:28:41;;;;;;;7.90;2.53;;;8.90;28.20;;;;;;5004465;28;21012;-65
2023/04/25 05:31:09;;;;;;;5.73;2.93;;;8.90;28.00;;;;;;5005551;28;20541;-65
2023/04/25 05:33:36;;;;;;;8.40;2.90;;;8.90;28.20;;;;;;5008154;28;20487;-66
2023/04/25 05:36:03;;;;;;;8.73;2.50;;;8.90;28.30;;;;;;5009233;28;20460;-65
2023/04/25 05:38:30;;;;;;;9.30;3.40;;;8.90;28.20;;;;;;5045522;28;20489;-65
2023/04/25 05:40:58;;;;;;;6.80;2.53;;;8.90;28.40;;;;;;5048695;28;20816;-64
2023/04/25 05:43:24;;;;;;;10.60;2.60;;;8.90;28.60;;;;;;5048676;28;20462;-65
2023/04/25 05:45:51;;;;;;;6.20;2.40;;;8.90;28.60;;;;;;5049558;28;20446;-65
2023/04/25 05:48:18;;;;;;;6.10;3.13;;;9.00;28.40;;;;;;5047159;28;20548;-64
2023/04/25 05:50:44;;;;;;;6.97;2.73;;;9.00;28.50;;;;;;5047842;28;20462;-65
2023/04/25 05:53:11;;;;;;;7.17;2.67;;;9.10;28.30;;;;;;5049416;28;20461;-65
2023/04/25 05:55:38;;;;;;;7.00;2.40;;;9.10;28.40;;;;;;5052156;28;20454;-65
2023/04/25 05:58:07;;;;;;;5.70;2.20;;;9.20;27.50;;;;;;5047781;28;20855;-65
2023/04/25 06:00:34;;;;;;;5.13;2.10;;;9.30;27.00;;;;;;5048378;28;20873;-65
2023/04/25 06:03:00;;;;;;;7.67;2.87;;;9.30;26.60;;;;;;5050973;28;20466;-66
2023/04/25 06:05:27;;;;;;;5.00;2.10;;;9.40;26.40;;;;;;5042511;28;20950;-65
2023/04/25 06:07:54;;;;;;;6.17;2.43;;;9.50;26.10;;;;;;5041774;28;20485;-66
2023/04/25 06:10:21;;;;;;;5.70;2.83;;;9.60;25.90;;;;;;5049004;28;20458;-65
2023/04/25 06:12:47;;;;;;;7.60;2.47;;;9.60;25.40;;;;;;5038574;28;20462;-65
2023/04/25 06:15:15;;;;;;;5.60;2.30;;;9.70;25.20;;;;;;5045908;28;20470;-65
2023/04/25 06:17:42;;;;;;;7.40;2.30;;;9.90;24.80;;;;;;5047230;28;20573;-66
2023/04/25 06:20:10;;;;;;;6.20;2.93;;;10.20;24.40;;;;;;5045286;28;20459;-65
2023/04/25 06:22:37;;;;;;;6.10;2.40;;;10.70;23.60;;;;;;5048139;28;20466;-65
2023/04/25 06:25:04;;;;;;;5.43;2.00;;;13.20;20.60;;;;;;5046019;28;20461;-66
2023/04/25 06:27:31;;;;;;;5.40;2.07;;;16.70;12.80;;;;;;5043144;28;20510;-66
2023/04/25 06:29:57;;;;;;;4.67;2.00;;;19.60;6.30;;;;;;5045975;28;20469;-66
2023/04/25 06:32:27;;;;;;;5.00;1.60;;;21.00;2.20;;;;;;5046026;28;20477;-66
2023/04/25 06:34:54;;;;;;;6.43;2.30;;;21.60;1.10;;;;;;5047560;28;20461;-67
2023/04/25 06:37:20;;;;;;;6.00;1.50;;;22.50;1.00;;;;;;5045116;28;20562;-67
2023/04/25 06:39:47;;;;;;;5.00;1.80;;;24.00;1.00;;;;;;5043390;28;20462;-66
2023/04/25 06:42:14;;;;;;;5.80;2.17;;;25.00;1.00;;;;;;5043802;28;20454;-67
2023/04/25 06:44:41;;;;;;;5.70;2.00;;;26.60;1.00;;;;;;5047863;28;20462;-67
2023/04/25 06:47:08;;;;;;;4.87;1.50;;;28.30;1.00;;;;;;5044711;28;20903;-68
2023/04/25 06:49:36;;;;;;;6.07;1.93;;;29.70;1.00;;;;;;5040706;28;20465;-67
2023/04/25 06:52:02;;;;;;;4.97;1.97;;;29.30;1.00;;;;;;5047089;28;20454;-67
2023/04/25 06:54:29;;;;;;;5.50;1.70;;;28.50;1.00;;;;;;5049629;28;20636;-66
2023/04/25 06:56:56;;;;;;;6.10;1.67;;;29.20;1.00;;;;;;5047313;28;20492;-67
2023/04/25 06:59:23;;;;;;;4.47;1.73;;;30.10;1.00;;;;;;5048527;28;20462;-68
2023/04/25 07:01:50;;;;;;;5.10;1.70;;;31.10;1.00;;;;;;5040628;28;20474;-67
2023/04/25 07:04:17;;;;;;;5.27;1.77;;;31.90;1.00;;;;;;5047745;28;20532;-67
2023/04/25 07:06:47;;;;;;;4.23;1.87;;;33.00;1.00;;;;;;5044332;28;20985;-68
2023/04/25 07:09:14;;;;;;;9.90;1.77;;;34.00;1.00;;;;;;5042264;28;20462;-68
2023/04/25 07:11:40;;;;;;;4.43;1.50;;;34.70;1.00;;;;;;5045357;28;20454;-68
2023/04/25 07:14:07;;;;;;;5.00;1.80;;;35.60;1.00;;;;;;5045557;28;20552;-67
2023/04/25 07:16:34;;;;;;;4.07;1.53;;;35.90;1.00;;;;;;5045858;28;20461;-67
2023/04/25 07:19:00;;;;;;;5.30;1.90;;;36.10;1.00;;;;;;5042535;28;20492;-68
2023/04/25 07:21:27;;;;;;;5.50;2.07;;;36.60;1.00;;;;;;5046976;28;20465;-68
2023/04/25 07:23:55;;;;;;;4.43;1.73;;;37.00;1.00;;;;;;5047386;28;20457;-67
2023/04/25 07:26:22;;;;;;;4.80;2.07;;;37.00;1.00;;;;;;5047650;28;20454;-68
2023/04/25 07:28:51;;;;;;;4.70;1.80;;;35.20;1.00;;;;;;5046920;28;20810;-67
2023/04/25 07:31:18;;;;;;;3.90;1.70;;;33.40;1.00;;;;;;5046204;28;20866;-66
2023/04/25 07:33:44;;;;;;;4.20;1.70;;;31.70;1.00;;;;;;5041651;28;20462;-67
2023/04/25 07:36:12;;;;;;;6.40;2.00;;;30.10;1.00;;;;;;5046325;28;20450;-67
2023/04/25 07:38:38;;;;;;;6.43;2.10;;;28.80;1.00;;;;;;5045033;28;20485;-67
2023/04/25 07:41:07;;;;;;;4.50;2.10;;;28.30;1.00;;;;;;5046873;28;20462;-67
2023/04/25 07:43:33;;;;;;;6.60;2.40;;;28.10;1.00;;;;;;5046589;28;20465;-67
2023/04/25 07:46:00;;;;;;;5.53;1.90;;;27.90;1.00;;;;;;5045096;28;20485;-68
2023/04/25 07:48:27;;;;;;;4.60;1.80;;;27.30;1.00;;;;;;5046562;28;20484;-66
2023/04/25 07:50:54;;;;;;;4.73;2.37;;;26.40;1.00;;;;;;5048532;28;20469;-66
2023/04/25 07:53:21;;;;;;;5.00;2.13;;;25.20;1.00;;;;;;5046661;28;20454;-68
2023/04/25 07:55:47;;;;;;;6.70;2.30;;;24.10;1.00;;;;;;5065135;28;20457;-66
2023/04/25 07:58:20;;;;;;;8.40;2.40;;;23.10;1.00;;;;;;5062621;28;20483;-66
2023/04/25 08:00:47;;;;;;;9.23;3.40;;;22.20;1.00;;;;;;5046682;28;21004;-66
2023/04/25 08:03:14;;;;;;;6.47;3.27;;;21.30;1.00;;;;;;5047819;28;20553;-67
2023/04/25 08:05:41;;;;;;;5.83;2.60;;;20.50;1.00;;;;;;5046934;28;20503;-66
2023/04/25 08:08:08;;;;;;;5.27;2.10;;;19.80;1.00;;;;;;5041457;28;20517;-66
2023/04/25 08:10:34;;;;;;;6.30;1.97;;;19.20;1.00;;;;;;5046861;28;20537;-65
2023/04/25 08:13:01;;;;;;;11.00;2.30;;;18.80;1.40;;;;;;5041586;28;20454;-66
2023/04/25 08:15:29;;;;;;;4.43;1.63;;;18.30;2.40;;;;;;5041837;28;20454;-66
2023/04/25 08:17:56;;;;;;;10.10;2.87;;;17.80;3.30;;;;;;5044801;28;20496;-66
2023/04/25 08:20:22;;;;;;;5.47;2.43;;;17.40;3.90;;;;;;5045155;28;21013;-66
2023/04/25 08:22:49;;;;;;;6.43;2.37;;;17.10;5.00;;;;;;5046653;28;20454;-67
2023/04/25 08:25:16;;;;;;;8.87;2.60;;;16.80;5.90;;;;;;5047842;28;20454;-66
2023/04/25 08:27:43;;;;;;;6.60;2.70;;;16.60;6.10;;;;;;5043963;28;21016;-67
2023/04/25 08:30:10;;;;;;;6.13;2.20;;;16.40;6.30;;;;;;5047653;28;20458;-66
2023/04/25 08:32:38;;;;;;;7.10;2.30;;;16.20;6.70;;;;;;5048669;28;20465;-66
2023/04/25 08:35:06;;;;;;;5.87;2.10;;;16.00;6.80;;;;;;5043763;28;20937;-66
2023/04/25 08:37:33;;;;;;;6.43;2.97;;;16.00;6.70;;;;;;5048744;28;20488;-65
2023/04/25 08:40:00;;;;;;;7.80;2.53;;;15.90;7.10;;;;;;5046634;28;20454;-66
2023/04/25 08:42:28;;;;;;;6.93;3.83;;;15.80;7.30;;;;;;5050420;28;20830;-65
2023/04/25 08:44:56;;;;;;;7.73;2.80;;;15.70;7.50;;;;;;5047461;28;20454;-66
2023/04/25 08:47:23;;;;;;;5.93;2.37;;;15.60;7.80;;;;;;5046794;28;20489;-66
2023/04/25 08:49:55;;;;;;;5.90;2.50;;;15.50;7.90;;;;;;5049106;28;20504;-65
2023/04/25 08:52:24;;;;;;;5.60;2.47;;;15.50;8.60;;;;;;5046437;28;21242;-66
2023/04/25 08:54:53;;;;;;;5.60;2.70;;;15.40;8.70;;;;;;5046255;28;20453;-66
2023/04/25 08:57:22;;;;;;;6.13;2.70;;;15.30;9.10;;;;;;5046708;28;20474;-65
2023/04/25 08:59:49;;;;;;;8.93;2.00;;;15.30;9.10;;;;;;5050620;28;20465;-66
2023/04/25 09:02:17;;;;;;;15.50;2.43;;;15.20;9.50;;;;;;5049295;28;20474;-66
2023/04/25 09:04:45;;;;;;;8.03;3.33;;;15.20;9.60;;;;;;5049583;28;20475;-65
2023/04/25 09:07:15;;;;;;;8.30;2.43;;;15.20;9.40;;;;;;5048686;28;20494;-66
2023/04/25 09:09:42;;;;;;;5.97;2.20;;;15.20;9.20;;;;;;5046118;28;21209;-66
2023/04/25 09:12:09;;;;;;;7.33;2.53;;;15.20;9.40;;;;;;5045542;28;20469;-66
2023/04/25 09:14:36;;;;;;;6.43;2.80;;;15.20;9.50;;;;;;5045845;28;20477;-66
2023/04/25 09:17:07;;;;;;;7.30;2.17;;;15.20;9.80;;;;;;5046741;28;20488;-66
2023/04/25 09:19:35;;;;;;;8.33;2.60;;;15.20;9.80;;;;;;5051279;28;20508;-66
2023/04/25 09:22:04;;;;;;;5.87;2.10;;;15.20;10.10;;;;;;5046902;28;20481;-65
2023/04/25 09:24:37;;;;;;;5.20;2.00;;;15.20;9.70;;;;;;5046156;28;20459;-67
2023/04/25 09:27:07;;;;;;;6.33;2.47;;;15.30;9.90;;;;;;5048249;28;20512;-66
2023/04/25 09:29:36;;;;;;;5.50;2.10;;;15.30;10.10;;;;;;5044988;28;20450;-66
2023/04/25 09:32:13;;;;;;;5.63;2.30;;;15.30;9.60;;;;;;5047047;28;20806;-65
2023/04/25 09:34:41;;;;;;;6.60;2.20;;;15.30;9.40;;;;;;5051388;28;20494;-66
2023/04/25 09:37:09;;;;;;;6.47;2.17;;;15.30;9.90;;;;;;5051966;28;20486;-66
2023/04/25 09:39:38;;;;;;;4.90;1.97;;;15.30;9.60;;;;;;5050634;28;20484;-66
2023/04/25 09:42:05;;;;;;;4.67;1.70;;;15.40;9.00;;;;;;5047873;28;20461;-65
2023/04/25 09:44:32;;;;;;;5.23;1.80;;;15.40;8.60;;;;;;5047150;28;20484;-66
2023/04/25 09:46:59;;;;;;;5.50;1.83;;;15.50;8.30;;;;;;5050849;28;20954;-66
2023/04/25 09:49:27;;;;;;;6.13;1.90;;;15.50;8.20;;;;;;5049108;28;20516;-65
2023/04/25 09:51:59;;;;;;;4.40;1.50;;;15.60;7.60;;;;;;5044451;28;20454;-67
2023/04/25 09:54:26;;;;;;;6.07;2.17;;;15.70;7.50;;;;;;5043858;28;20961;-65
2023/04/25 09:56:54;;;;;;;4.90;2.37;;;15.60;7.00;;;;;;5046762;28;20466;-66
2023/04/25 09:59:23;;;;;;;4.63;2.10;;;15.60;6.90;;;;;;5045493;28;20470;-66
2023/04/25 10:01:51;;;;;;;5.30;2.17;;;15.60;7.40;;;;;;5045931;28;20518;-66
2023/04/25 10:04:23;;;;;;;4.53;1.60;;;15.60;7.50;;;;;;5047818;28;20519;-66
2023/04/25 10:06:52;;;;;;;4.97;2.10;;;15.60;7.40;;;;;;5048086;28;20470;-66
2023/04/25 10:09:21;;;;;;;6.03;2.17;;;15.60;7.80;;;;;;5045108;28;20463;-67
2023/04/25 10:11:48;;;;;;;5.53;1.67;;;15.50;8.90;;;;;;5044926;28;20462;-66
2023/04/25 10:14:17;;;;;;;4.87;2.00;;;15.30;9.60;;;;;;5047617;28;20549;-65
2023/04/25 10:16:44;;;;;;;4.40;1.90;;;15.00;9.40;;;;;;5044852;28;20458;-65
2023/04/25 10:19:11;;;;;;;6.33;1.57;;;14.60;10.00;;;;;;5047481;28;20481;-66
2023/04/25 10:21:45;;;;;;;5.23;2.30;;;14.30;10.60;;;;;;5047569;28;20470;-66
2023/04/25 10:24:12;;;;;;;5.07;2.30;;;14.10;11.90;;;;;;5048371;28;20999;-66
2023/04/25 10:26:39;;;;;;;4.83;2.13;;;13.90;12.70;;;;;;5046063;28;20474;-66
2023/04/25 10:29:06;;;;;;;5.80;1.87;;;13.60;13.90;;;;;;5045336;28;20485;-65
2023/04/25 10:31:45;;;;;;;5.43;2.63;;;13.30;14.80;;;;;;5046284;28;20470;-66
2023/04/25 10:34:11;;;;;;;5.83;2.37;;;13.10;15.70;;;;;;5047850;28;20458;-65
2023/04/25 10:36:39;;;;;;;5.17;1.90;;;12.80;16.90;;;;;;5068593;22;20467;-66
2023/04/25 10:39:08;;;;;;;6.30;2.60;;;12.50;16.60;;;;;;5126705;27;20569;-66
2023/04/25 10:41:47;;;;;;;7.10;2.43;;;12.20;17.10;;;;;;5130096;27;20960;-66
2023/04/25 10:44:15;;;;;;;5.30;2.50;;;12.00;17.30;;;;;;5125198;27;20478;-66
2023/04/25 10:46:46;;;;;;;4.67;2.13;;;11.80;17.60;;;;;;5119410;27;20543;-66
2023/04/25 10:49:29;;;;;;;5.80;2.60;;;11.50;18.70;;;;;;5114718;27;20487;-66
2023/04/25 10:52:12;;;;;;;7.93;2.57;;;11.30;19.10;;;;;;5127614;27;20462;-66
2023/04/25 10:54:42;;;;;;;5.10;2.53;;;11.10;20.00;;;;;;5127456;27;20458;-66
2023/04/25 10:57:27;;;;;;;5.50;2.30;;;10.90;20.30;;;;;;5123784;27;20501;-66
2023/04/25 10:59:54;;;;;;;5.87;1.73;;;10.90;21.60;;;;;;5128192;27;20482;-66
2023/04/25 11:02:26;;;;;;;5.20;1.47;;;11.00;22.10;;;;;;5129610;27;20470;-66
2023/04/25 11:04:54;;;;;;;4.97;2.00;;;11.00;23.80;;;;;;5122435;27;20459;-66
2023/04/25 11:07:29;;;;;;;3.90;1.37;;;11.10;23.20;;;;;;5111519;27;20478;-66
2023/04/25 11:09:56;;;;;;;3.97;1.30;;;11.10;23.10;;;;;;5126051;27;20461;-66
2023/04/25 11:12:25;;;;;;;5.63;1.97;;;11.20;22.80;;;;;;5121300;27;20934;-66
2023/04/25 11:15:00;;;;;;;4.13;1.60;;;11.20;22.70;;;;;;5126222;27;20469;-66
2023/04/25 11:17:29;;;;;;;5.33;1.57;;;11.20;22.90;;;;;;5123495;27;20490;-66
2023/04/25 11:19:56;;;;;;;4.50;1.53;;;11.20;23.50;;;;;;5125154;27;20831;-66
2023/04/25 11:22:24;;;;;;;4.00;1.10;;;11.30;23.30;;;;;;5113587;27;20914;-66
2023/04/25 11:24:51;;;;;;;4.27;1.50;;;11.30;23.10;;;;;;5127064;27;20910;-66
2023/04/25 11:27:17;;;;;;;5.40;1.70;;;11.30;22.70;;;;;;5118931;27;20513;-66
2023/04/25 11:29:44;;;;;;;4.53;1.50;;;11.30;22.40;;;;;;5120796;27;20458;-66
2023/04/25 11:32:11;;;;;;;4.10;1.53;;;11.40;22.30;;;;;;5122685;27;20554;-66
2023/04/25 11:34:39;;;;;;;5.30;1.60;;;11.40;22.00;;;;;;5121189;27;20478;-66
2023/04/25 11:37:06;;;;;;;4.80;1.40;;;11.50;21.70;;;;;;5125767;27;20478;-66
2023/04/25 11:39:33;;;;;;;5.50;1.90;;;11.50;21.80;;;;;;5120834;27;20558;-66
2023/04/25 11:42:00;;;;;;;4.50;1.40;;;11.60;21.60;;;;;;5123071;27;20462;-66
2023/04/25 11:44:28;;;;;;;7.87;2.07;;;11.80;21.60;;;;;;5118885;27;20466;-66
2023/04/25 11:46:56;;;;;;;5.57;1.60;;;11.90;21.00;;;;;;5125188;27;20570;-66
2023/04/25 11:49:24;;;;;;;4.20;1.53;;;12.10;20.70;;;;;;5121738;27;20864;-66
2023/04/25 11:51:52;;;;;;;4.73;1.90;;;12.30;20.00;;;;;;5120054;27;20454;-66
2023/04/25 11:54:19;;;;;;;4.77;1.60;;;12.30;19.70;;;;;;5125776;27;20450;-66
2023/04/25 11:56:46;;;;;;;4.77;1.70;;;12.30;19.60;;;;;;5123052;27;20496;-66
2023/04/25 11:59:14;;;;;;;6.13;2.10;;;12.30;19.70;;;;;;5127245;27;20521;-66
2023/04/25 12:01:48;;;;;;;5.80;1.80;;;12.20;20.20;;;;;;5126646;27;20481;-66
2023/04/25 12:04:16;;;;;;;5.50;2.40;;;12.10;20.70;;;;;;5127261;27;20454;-66
2023/04/25 12:06:46;;;;;;;5.30;2.27;;;11.90;21.30;;;;;;5114455;27;20463;-66
2023/04/25 12:09:17;;;;;;;6.30;1.90;;;11.80;21.90;;;;;;5128336;27;20482;-66
2023/04/25 12:11:44;;;;;;;4.40;1.50;;;11.70;21.90;;;;;;5127555;27;20451;-66
2023/04/25 12:14:11;;;;;;;4.77;1.80;;;11.70;21.60;;;;;;5124455;27;20477;-66
2023/04/25 12:16:42;;;;;;;5.07;1.20;;;11.60;21.30;;;;;;5132500;27;20466;-65
2023/04/25 12:19:09;;;;;;;4.67;2.03;;;11.60;21.80;;;;;;5124633;27;21197;-66
2023/04/25 12:21:36;;;;;;;7.33;1.80;;;11.60;21.70;;;;;;5131112;27;20478;-66
2023/04/25 12:24:12;;;;;;;3.90;1.10;;;11.60;21.50;;;;;;5127888;27;20462;-64
2023/04/25 12:26:51;;;;;;;4.40;1.40;;;11.60;21.80;;;;;;5133006;27;20971;-64
2023/04/25 12:29:20;;;;;;;4.70;1.67;;;11.50;22.10;;;;;;5124039;27;20454;-64
2023/04/25 12:31:47;;;;;;;4.40;1.70;;;11.50;22.30;;;;;;5131769;27;20885;-64
2023/04/25 12:34:14;;;;;;;4.70;2.10;;;11.50;22.80;;;;;;5138121;27;20461;-64
2023/04/25 12:36:41;;;;;;;5.83;2.13;;;11.40;22.50;;;;;;5132984;27;20473;-64
2023/04/25 12:39:08;;;;;;;5.17;2.07;;;11.50;22.60;;;;;;5132278;27;20482;-64
2023/04/25 12:41:35;;;;;;;5.07;2.10;;;11.50;23.20;;;;;;5125793;27;20458;-64
2023/04/25 12:44:03;;;;;;;4.57;2.00;;;11.50;23.80;;;;;;5132338;27;20481;-64
2023/04/25 12:46:30;;;;;;;5.00;2.17;;;11.50;24.10;;;;;;5125292;27;20462;-64
2023/04/25 12:48:57;;;;;;;5.47;2.10;;;11.50;24.10;;;;;;5127130;27;20585;-64
2023/04/25 12:51:24;;;;;;;6.53;2.20;;;11.60;24.20;;;;;;5134461;27;20462;-64
2023/04/25 12:53:51;;;;;;;5.23;2.30;;;11.60;24.20;;;;;;5126272;27;20815;-64
2023/04/25 12:56:19;;;;;;;6.13;3.10;;;11.60;24.60;;;;;;5127578;27;20466;-65
2023/04/25 12:58:46;;;;;;;5.60;2.60;;;11.60;24.60;;;;;;5127847;27;20501;-64